Racecast

Skyler Brown

Temperance Bedford (MI) · 10 · SECMI D1MONROE · Compare head to head

what a rating means
100 is the average runner in the athlete's pool; a rating of 133 means 33% faster than that average runner. Ratings are distance-normalised and course-adjusted, so a hard course and a fast track land on one number. Each pool (high school boys, college women, middle school…) has its own average, and the HS-equivalent view puts every pool on the high-school scale.
Athlete rating 73.4 2022 XC season
Best race 86.6 XC
Races 36
Seasons 5 2018 — 2022

RankedNation #141473·MI #6051·MI D1 #3267·SEC #247·Team #96 ?

Rating scale ?
Speed rating — all races

Cross Country

XC speed rating

2022 XC 69.2

Temperance Bedford (MI) · Grade 10

Date Meet Event Result Place Rating Difficulty PR/SR Flags
2022-10-29 Milan HS OFFICIAL 5000m 33:41.3 128th · 15th on team 74.3 -1.3% ★CR CSR
2022-10-20 Hudson Mills Metropark - OFFICIAL 5000m 32:56.1 125th · 14th on team 74.8 -2.7% ★PR ★CR SR CSR RSR
2022-10-15 Munson Park 5000m 34:55.1 44th · 12th on team 72.0 -1.4% ★CR CSR RSR
2022-10-08 Portage West MS 5000m 34:25.6 287th · 10th on team 71.7 -2.5% ★CR SR CSR RSR
2022-09-28 Pioneer HS 5000m 36:53.1 69th · 6th on team 68.4 -0.4% ★CR SR CSR RSR
2022-09-14 Ella Sharp Park OFFICIAL 5000m 38:59.8 95th · 9th on team 64.3 -2.2% CSR
2022-09-10 Hedges Boyer Park 5000m 40:04.5 214th · 4th on team 62.4 -2.6% CSR
2022-08-27 Defiance High School 5000m 38:08.9 170th · 22nd on team 65.7 -1.4% ★CR SR CSR RSR

2021 XC 67.3

Temperance Bedford (MI) · Grade 9

Date Meet Event Result Place Rating Difficulty PR/SR Flags
2021-10-30 Lake Erie Metro Park OFFICIAL 5000m 37:29.2 120th · 17th on team 67.4 -1.4% ★CR CSR
2021-10-21 Hudson Mills Metropark - OFFICIAL 5000m 33:46.7 147th · 16th on team 74.6 -2.7% PR CR SR CSR RSR
2021-09-28 Munson Park 5000m 37:25.5 94th · 5th on team 68.1 -1.4% CR CSR
2021-09-24 Ella Sharp Park OFFICIAL 5000m 35:24.3 172nd · 11th on team 72.1 -2.2% PR ★CR SR CSR RSR
2021-09-18 Ottawa Park Golf Course 5000m 39:22.4 52nd · 7th on team 63.9 -2.4% ★CR CSR
2021-09-14 Hudson Mills Metropark - OFFICIAL 5000m 38:07.4 120th · 8th on team 66.1 -2.7% PR CR SR CSR RSR
2021-09-11 Hedges Boyer Park 5000m 39:36.8 279th · 9th on team 63.6 -2.6% PR ★CR SR CSR RSR
2021-08-28 Defiance High School 5000m 41:16.3 156th · 24th on team 62.2 -1.4% PR CR SR CSR RSR

2020 XC 77.8

Temperance Bedford (MI) · Grade 8

Date Meet Event Result Place Rating Difficulty PR/SR Flags
2020-10-14 Indian Creek OFFICIAL 3200m 20:43.5 41st · 27th on team 81.0 -1.7% SR CSR RSR
2020-10-07 Hudson Mills Metropark - OFFICIAL 3218m 23:03.2 46th · 28th on team 76.8 +0.3% CSR
2020-09-24 Indian Creek OFFICIAL 3200m 22:29 40th · 29th on team 76.2 -1.7% SR CSR
2020-09-19 Indian Creek OFFICIAL 3218m 21:57 41st · 28th on team 76.8 -1.7% ★CR SR CSR
2020-09-16 Rolling Hills 3218m 22:49.8 39th · 32nd on team 78.1 +0.7% ★CR SR CSR RSR

2019 XC 80.9

Temperance Bedford (MI) · Grade 7

Date Meet Event Result Place Rating Difficulty PR/SR Flags
2019-10-19 Huron Meadows Metropark OFFICIAL 3200m 19:43.6 198th · 16th on team 85.4 -1.5% ★CR SR CSR RSR
2019-10-12 Munson Park 3200m 20:47.6 104th · 26th on team 81.3 -1.5% CSR
2019-10-09 Indian Creek OFFICIAL 3200m 20:15 84th · 21st on team 83.5 -1.7% ★CR SR CSR
2019-09-28 Lake Erie Metro Park OFFICIAL 3218m 20:34.5 162nd · 26th on team 82.1 -1.4% SR CSR
2019-09-24 Hudson Mills Metropark - OFFICIAL 3218m 20:46.5 74th · 18th on team 84.4 +0.3% ★CR SR CSR RSR
2019-09-14 Ottawa Park Golf Course 3200m 21:02.4 85th · 27th on team 82.5 +0.6% ★CR SR CSR RSR
2019-09-07 Hedges Boyer Park 2816m 22:15.5 279th · 6th on team 66.9 ★PR ★CR SR CSR RSR

2018 XC 81.2

Temperance Bedford (MI) · Grade 6

Date Meet Event Result Place Rating Difficulty PR/SR Flags
2018-10-13 Munson Park 3200m 19:17.8 94th · 31st on team 86.6 -1.5% ★PR ★CR ★R SR CSR RSR
2018-10-10 Saline High School 3200m 20:02.8 71st · 18th on team 83.6 -3.6% PR ★CR R SR CSR RSR
2018-10-06 Munson Park 3218m 21:25.7 96th · 28th on team 79.8 -1.5% ★CR CSR
2018-09-29 Lake Erie Metro Park OFFICIAL 3218m 20:23.4 177th · 29th on team 83.1 -1.4% ★PR ★CR R SR CSR RSR
2018-09-25 Hudson Mills Metropark - OFFICIAL 3218m 21:59.1 73rd · 19th on team 78.1 +0.3% CR CSR
2018-09-15 Ottawa Park Golf Course 3200m 21:12.2 60th · 28th on team 82.0 +0.6% PR CR R SR CSR RSR
2018-09-12 Tecumseh HS 3218m 20:37 71st · 26th on team 80.7 -2.3% PR ★CR R SR CSR RSR
2018-08-30 Eastwood HS 3200m 22:34 138th · 28th on team 75.7 -0.3% PR ★CR R SR CSR RSR